HEAT

Assiut International Airport

Assiut, Egypt
METAR HEAT 250000Z 36006KT CAVOK 18/05 Q1014 NOSIG
Observed Flight Rules
Apr-25 @ 00:00 UTC (53 minutes ago) Visual Flight Rules
Wind Visibility Clouds
360° at 6 knots 10,000+ meters
  • Clear skies
Temperatures Readings
Current 18°C / 64°F
Dewpoint 5°C / 41°F
Humidity 43%
Altimeter 29.94" Hg
Pressure 1014 hPa
Elevation 70
METAR HEAT 250000Z 36006KT CAVOK 18/05 Q1014 NOSIG
Observed Flight Rules
Apr-25 @ 00:00 UTC
(53 minutes ago)
VFR
Wind Visibility
360° at 6 knots 10,000+ meters
Clouds
  • Clear skies
Temperature Dewpoint
18°C / 64°F 5°C / 41°F
Humidity Altimeter Pressure
43% 29.94" Hg 1014 hPa